Time,TemperatureF,DewpointF,PressureIn,WindDirection,WindDirectionDegrees,WindSpeedMPH,WindSpeedGustMPH,Humidity,HourlyPrecipIn,Conditions,Clouds,dailyrainin,SoftwareType,DateUTC
2013-04-13 00:00:00,62.3,44.5,29.94,NNE,22,0.0,7.0,52,0.00,,,0.00,VWS V14.01,2013-04-13 04:00:00,
2013-04-13 00:30:00,61.2,43.5,29.95,NNW,338,0.0,5.0,52,0.00,,,0.00,VWS V14.01,2013-04-13 04:30:00,
2013-04-13 01:00:00,59.9,43.7,29.96,WSW,248,0.0,2.0,55,0.00,,,0.00,VWS V14.01,2013-04-13 05:00:00,
2013-04-13 01:30:00,58.2,45.3,29.97,WSW,248,0.0,0.0,62,0.00,,,0.00,VWS V14.01,2013-04-13 05:30:00,
2013-04-13 02:00:00,55.6,45.6,29.98,WSW,248,0.0,0.0,69,0.00,,,0.00,VWS V14.01,2013-04-13 06:00:00,
2013-04-13 02:30:00,53.2,44.8,29.99,WSW,248,0.0,0.0,73,0.00,,,0.00,VWS V14.01,2013-04-13 06:30:00,
2013-04-13 03:00:00,51.7,45.1,30.00,WSW,248,0.0,0.0,78,0.00,,,0.00,VWS V14.01,2013-04-13 07:00:00,
2013-04-13 03:30:00,50.0,42.7,30.01,WSW,248,0.0,0.0,76,0.00,,,0.00,VWS V14.01,2013-04-13 07:30:00,
2013-04-13 04:00:00,48.8,42.3,30.02,WSW,248,0.0,0.0,78,0.00,,,0.00,VWS V14.01,2013-04-13 08:00:00,
2013-04-13 04:30:00,47.8,42.3,30.03,WSW,248,0.0,0.0,81,0.00,,,0.00,VWS V14.01,2013-04-13 08:30:00,
2013-04-13 05:00:00,46.7,42.1,30.05,WSW,248,0.0,0.0,84,0.00,,,0.00,VWS V14.01,2013-04-13 09:00:00,
2013-04-13 05:30:00,45.5,41.6,30.05,WSW,248,0.0,0.0,86,0.00,,,0.00,VWS V14.01,2013-04-13 09:30:00,
2013-04-13 06:00:00,44.4,40.5,30.05,WSW,248,0.0,0.0,86,0.00,,,0.00,VWS V14.01,2013-04-13 10:00:00,
2013-04-13 06:30:00,43.5,39.9,30.06,WSW,248,0.0,0.0,87,0.00,,,0.00,VWS V14.01,2013-04-13 10:30:00,
2013-04-13 07:00:00,42.7,39.7,30.08,WSW,248,0.0,0.0,89,0.00,,,0.00,VWS V14.01,2013-04-13 11:00:00,
2013-04-13 07:30:00,42.7,40.3,30.10,WSW,248,0.0,0.0,91,0.00,,,0.00,VWS V14.01,2013-04-13 11:30:00,
2013-04-13 08:00:00,46.7,45.1,30.11,WSW,248,0.0,0.0,94,0.00,,,0.00,VWS V14.01,2013-04-13 12:00:00,
2013-04-13 08:30:00,53.0,48.6,30.11,WSW,248,0.0,0.0,85,0.00,,,0.00,VWS V14.01,2013-04-13 12:30:00,
2013-04-13 09:00:00,57.9,43.7,30.11,NE,45,1.0,6.0,59,0.00,,,0.00,VWS V14.01,2013-04-13 13:00:00,
2013-04-13 09:30:00,60.6,43.4,30.13,NE,45,1.0,9.0,53,0.00,,,0.00,VWS V14.01,2013-04-13 13:30:00,
2013-04-13 10:00:00,62.2,44.4,30.13,NE,45,3.0,14.0,52,0.00,,,0.00,VWS V14.01,2013-04-13 14:00:00,
2013-04-13 10:30:00,63.2,43.7,30.13,NE,45,4.0,15.0,49,0.00,,,0.00,VWS V14.01,2013-04-13 14:30:00,
2013-04-13 11:00:00,63.9,44.4,30.14,NNE,22,2.0,11.0,49,0.00,,,0.00,VWS V14.01,2013-04-13 15:00:00,
2013-04-13 11:30:00,64.4,43.2,30.13,NE,45,1.0,8.0,46,0.00,,,0.00,VWS V14.01,2013-04-13 15:30:00,
2013-04-13 12:00:00,66.4,47.2,30.13,NE,45,2.0,13.0,50,0.00,,,0.00,VWS V14.01,2013-04-13 16:00:00,
2013-04-13 12:30:00,67.0,47.8,30.13,NE,45,1.0,11.0,50,0.00,,,0.00,VWS V14.01,2013-04-13 16:30:00,
2013-04-13 13:00:00,67.7,43.2,30.12,WNW,292,2.0,12.0,41,0.00,,,0.00,VWS V14.01,2013-04-13 17:00:00,
2013-04-13 13:30:00,69.3,44.0,30.11,NW,315,2.0,10.0,40,0.00,,,0.00,VWS V14.01,2013-04-13 17:30:00,
2013-04-13 14:00:00,70.6,47.7,30.10,NNE,22,2.0,10.0,44,0.00,,,0.00,VWS V14.01,2013-04-13 18:00:00,
2013-04-13 14:30:00,71.3,45.8,30.09,SW,225,1.0,11.0,40,0.00,,,0.00,VWS V14.01,2013-04-13 18:30:00,
2013-04-13 15:00:00,72.6,45.6,30.08,SW,225,1.0,11.0,38,0.00,,,0.00,VWS V14.01,2013-04-13 19:00:00,
2013-04-13 15:30:00,73.2,48.8,30.08,SW,225,1.0,13.0,42,0.00,,,0.00,VWS V14.01,2013-04-13 19:30:00,
2013-04-13 16:00:00,73.5,44.9,30.06,North,0,1.0,8.0,36,0.00,,,0.00,VWS V14.01,2013-04-13 20:00:00,
2013-04-13 16:30:00,73.3,46.2,30.06,SW,225,1.0,11.0,38,0.00,,,0.00,VWS V14.01,2013-04-13 20:30:00,
2013-04-13 17:00:00,74.2,48.3,30.05,SW,225,1.0,9.0,40,0.00,,,0.00,VWS V14.01,2013-04-13 21:00:00,
2013-04-13 17:30:00,73.8,47.3,30.06,SW,225,0.0,6.0,39,0.00,,,0.00,VWS V14.01,2013-04-13 21:30:00,
2013-04-13 18:00:00,73.5,43.4,30.05,SW,225,0.0,7.0,34,0.00,,,0.00,VWS V14.01,2013-04-13 22:00:00,
2013-04-13 18:30:00,72.8,45.7,30.05,WNW,292,0.0,6.0,38,0.00,,,0.00,VWS V14.01,2013-04-13 22:30:00,
2013-04-13 19:00:00,71.3,44.4,30.06,WSW,248,0.0,6.0,38,0.00,,,0.00,VWS V14.01,2013-04-13 23:00:00,
2013-04-13 19:30:00,69.0,45.6,30.07,WSW,248,0.0,1.0,43,0.00,,,0.00,VWS V14.01,2013-04-13 23:30:00,
2013-04-13 20:00:00,65.4,45.8,30.08,WSW,248,0.0,0.0,49,0.00,,,0.00,VWS V14.01,2013-04-14 00:00:00,
2013-04-13 20:30:00,62.0,45.2,30.10,WSW,248,0.0,0.0,54,0.00,,,0.00,VWS V14.01,2013-04-14 00:30:00,
2013-04-13 21:00:00,59.0,46.4,30.12,WSW,248,0.0,0.0,63,0.00,,,0.00,VWS V14.01,2013-04-14 01:00:00,
2013-04-13 21:30:00,56.7,47.8,30.13,WSW,248,0.0,0.0,72,0.00,,,0.00,VWS V14.01,2013-04-14 01:30:00,
2013-04-13 22:00:00,54.4,45.6,30.15,WSW,248,0.0,0.0,72,0.00,,,0.00,VWS V14.01,2013-04-14 02:00:00,
2013-04-13 22:30:00,52.6,46.0,30.16,WSW,248,0.0,0.0,78,0.00,,,0.00,VWS V14.01,2013-04-14 02:30:00,
2013-04-13 23:00:00,51.5,46.2,30.17,WSW,248,0.0,0.0,82,0.00,,,0.00,VWS V14.01,2013-04-14 03:00:00,
2013-04-13 23:30:00,50.2,44.9,30.18,WSW,248,0.0,0.0,82,0.00,,,0.00,VWS V14.01,2013-04-14 03:30:00,